Time;durP1;ratioP1;P1;durP2;ratioP2;P2;SDS_P1;SDS_P2;PMS_P1;PMS_P2;Temp;Humidity;BMP_temperature;BMP_pressure;BME280_temperature;BME280_humidity;BME280_pressure;Samples;Min_cycle;Max_cycle;Signal;HPM_P1;HPM_P2
2023/05/21 00:00:59;;;;;;;21.88;11.30;;;;;;;14.73;95.05;94699.81;4993727;28;20167;-81
2023/05/21 00:03:27;;;;;;;17.77;10.82;;;;;;;14.75;95.20;94704.88;4991830;28;20264;-81
2023/05/21 00:05:53;;;;;;;22.20;13.05;;;;;;;14.65;95.10;94703.66;4992365;28;20443;-81
2023/05/21 00:08:19;;;;;;;18.48;11.32;;;;;;;14.60;95.08;94708.06;4991829;28;20181;-81
2023/05/21 00:10:45;;;;;;;18.13;10.88;;;;;;;14.48;95.64;94684.28;4993054;28;20205;-81
2023/05/21 00:13:10;;;;;;;18.07;10.93;;;;;;;14.34;95.97;94661.78;4992211;28;20486;-81
2023/05/21 00:15:35;;;;;;;22.30;11.20;;;;;;;14.57;95.35;94701.41;4993176;28;20181;-81
2023/05/21 00:18:02;;;;;;;28.70;15.95;;;;;;;14.50;95.41;94695.47;4993095;28;20169;-81
2023/05/21 00:20:30;;;;;;;25.08;13.80;;;;;;;14.33;95.02;94666.28;4993208;28;20168;-81
2023/05/21 00:22:56;;;;;;;29.50;17.05;;;;;;;14.44;94.85;94677.06;4992587;28;20221;-81
2023/05/21 00:25:22;;;;;;;24.73;14.07;;;;;;;14.50;94.60;94692.00;4992860;28;20595;-81
2023/05/21 00:27:48;;;;;;;23.88;13.27;;;;;;;14.36;94.52;94676.38;4992832;28;20169;-81
2023/05/21 00:30:14;;;;;;;34.00;16.08;;;;;;;14.46;94.48;94686.38;4993098;28;20153;-81
2023/05/21 00:32:39;;;;;;;32.60;15.97;;;;;;;14.45;94.24;94692.69;4992774;28;20169;-81
2023/05/21 00:35:05;;;;;;;26.33;15.80;;;;;;;14.24;93.69;94658.94;4991838;28;20181;-81
2023/05/21 00:37:33;;;;;;;29.88;17.15;;;;;;;14.17;94.09;94682.13;4992012;28;20424;-81
2023/05/21 00:40:04;;;;;;;26.45;15.05;;;;;;;13.83;96.15;94681.22;4991549;28;20420;-81
2023/05/21 00:42:29;;;;;;;21.20;11.60;;;;;;;13.75;95.87;94661.19;4993386;28;20211;-81
2023/05/21 00:44:55;;;;;;;17.77;11.10;;;;;;;13.84;96.33;94680.16;4992817;28;20636;-81
2023/05/21 00:47:22;;;;;;;26.00;12.77;;;;;;;13.87;96.11;94675.22;4994790;28;20219;-82
2023/05/21 00:49:50;;;;;;;27.33;11.75;;;;;;;13.90;95.67;94672.09;4996787;28;20153;-82
2023/05/21 00:52:19;;;;;;;19.25;9.48;;;;;;;13.72;94.67;94642.38;4995314;28;20191;-82
2023/05/21 00:54:47;;;;;;;16.63;9.43;;;;;;;13.66;94.30;94646.75;4996546;28;20197;-82
2023/05/21 00:57:13;;;;;;;17.53;8.63;;;;;;;13.83;94.82;94676.72;4996774;28;20161;-82
2023/05/21 00:59:38;;;;;;;12.83;7.97;;;;;;;13.65;94.89;94655.72;4996456;28;20562;-82
2023/05/21 01:02:05;;;;;;;13.37;8.07;;;;;;;13.82;94.51;94688.34;4996700;28;20161;-82
2023/05/21 01:04:31;;;;;;;20.30;10.10;;;;;;;13.60;94.46;94655.63;4996625;28;20217;-81
2023/05/21 01:06:57;;;;;;;17.30;9.43;;;;;;;13.62;94.40;94650.91;4996447;28;20243;-82
2023/05/21 01:09:25;;;;;;;17.33;10.02;;;;;;;13.63;94.53;94657.81;4996548;28;20272;-81
2023/05/21 01:11:51;;;;;;;47.60;22.20;;;;;;;13.61;94.43;94670.44;4994998;28;20611;-81
2023/05/21 01:14:18;;;;;;;34.47;16.87;;;;;;;13.40;95.26;94648.09;4996354;28;20185;-81
2023/05/21 01:16:47;;;;;;;32.17;16.77;;;;;;;13.32;95.34;94643.13;4996115;28;20193;-82
2023/05/21 01:19:20;;;;;;;26.50;13.37;;;;;;;13.30;95.44;94637.31;4994834;28;20181;-82
2023/05/21 01:21:52;;;;;;;29.13;13.67;;;;;;;13.51;95.31;94660.47;4996332;28;20184;-82
2023/05/21 01:24:18;;;;;;;28.40;12.83;;;;;;;13.54;95.36;94665.28;4995791;28;20664;-82
2023/05/21 01:26:45;;;;;;;26.20;12.90;;;;;;;13.37;95.09;94637.16;4995976;28;20666;-81
2023/05/21 01:29:12;;;;;;;25.53;11.60;;;;;;;13.45;95.14;94647.38;4995883;28;20188;-82
2023/05/21 01:32:19;;;;;;;22.60;11.37;;;;;;;13.49;95.31;94661.75;4995908;28;20169;-82
2023/05/21 01:34:54;;;;;;;23.13;11.30;;;;;;;13.41;94.79;94638.28;4986121;28;20593;-82
2023/05/21 01:37:50;;;;;;;20.03;10.93;;;;;;;13.51;94.75;94655.16;4995754;28;20161;-82
2023/05/21 01:40:20;;;;;;;14.57;8.60;;;;;;;12.98;95.15;94586.63;4995760;28;20165;-82
2023/05/21 01:42:46;;;;;;;21.97;10.10;;;;;;;13.41;95.41;94665.53;4995641;28;20284;-82
2023/05/21 01:45:14;;;;;;;26.13;9.73;;;;;;;13.38;95.45;94654.63;4995538;28;20263;-82
2023/05/21 01:47:42;;;;;;;17.53;10.27;;;;;;;13.34;95.85;94640.25;4995622;28;20248;-82
2023/05/21 01:50:09;;;;;;;33.63;14.23;;;;;;;13.45;95.56;94657.94;4995666;28;20215;-81
2023/05/21 01:52:35;;;;;;;37.93;17.13;;;;;;;13.36;94.89;94643.47;4995547;28;20165;-81
2023/05/21 01:55:00;;;;;;;35.17;14.67;;;;;;;13.49;94.88;94656.47;4995353;28;20551;-81
2023/05/21 01:57:25;;;;;;;28.23;11.50;;;;;;;13.41;95.33;94648.88;4995048;28;20648;-81
2023/05/21 01:59:52;;;;;;;12.47;6.30;;;;;;;13.23;95.15;94621.53;4993395;28;20273;-81
2023/05/21 02:02:18;;;;;;;11.33;6.43;;;;;;;13.11;94.88;94606.72;4994756;28;20176;-81
2023/05/21 02:04:44;;;;;;;9.93;6.00;;;;;;;13.24;95.10;94622.34;4993529;28;20181;-81
2023/05/21 02:07:13;;;;;;;7.87;5.10;;;;;;;13.25;95.24;94650.38;4994908;28;20181;-81
2023/05/21 02:09:38;;;;;;;10.47;5.43;;;;;;;13.07;95.45;94639.91;4994439;28;20177;-81
2023/05/21 02:12:04;;;;;;;11.00;5.88;;;;;;;13.04;96.27;94649.13;4992944;28;20421;-81
2023/05/21 02:14:32;;;;;;;8.13;5.40;;;;;;;12.90;95.59;94605.47;4993818;28;20507;-81
2023/05/21 02:16:58;;;;;;;9.07;5.80;;;;;;;12.85;95.61;94600.09;4993373;28;20555;-82
2023/05/21 02:19:23;;;;;;;9.32;6.22;;;;;;;12.94;95.95;94625.13;4992438;28;20432;-81
2023/05/21 02:21:49;;;;;;;8.63;5.60;;;;;;;13.15;95.14;94639.59;4993775;28;20184;-81
2023/05/21 02:24:14;;;;;;;7.40;4.70;;;;;;;13.18;95.07;94641.78;4994259;28;20237;-81
2023/05/21 02:26:39;;;;;;;14.03;4.87;;;;;;;13.22;94.30;94640.31;4994787;28;20200;-81
2023/05/21 02:29:05;;;;;;;8.70;5.07;;;;;;;13.11;94.06;94622.59;4994731;28;20686;-81
2023/05/21 02:31:31;;;;;;;7.47;5.40;;;;;;;13.25;93.46;94639.00;4994618;28;20173;-81
2023/05/21 02:33:56;;;;;;;9.27;5.83;;;;;;;13.20;93.75;94635.25;4994506;28;20153;-81
2023/05/21 02:36:24;;;;;;;9.20;5.40;;;;;;;13.23;93.64;94630.53;4993454;28;20192;-81
2023/05/21 02:38:49;;;;;;;9.23;5.97;;;;;;;13.05;94.09;94642.00;4993701;28;20768;-81
2023/05/21 02:41:15;;;;;;;6.90;5.50;;;;;;;12.95;94.54;94633.84;4994471;28;20167;-81
2023/05/21 02:43:40;;;;;;;7.35;5.47;;;;;;;12.89;94.52;94632.91;4994300;28;20812;-82
2023/05/21 02:46:06;;;;;;;9.73;5.37;;;;;;;12.81;94.92;94612.13;4994835;28;20588;-82
2023/05/21 02:48:31;;;;;;;8.07;5.50;;;;;;;12.70;94.81;94605.03;4994428;28;20183;-81
2023/05/21 02:50:57;;;;;;;7.20;4.77;;;;;;;12.89;94.62;94629.47;4994468;28;20540;-81
2023/05/21 02:53:23;;;;;;;7.27;5.53;;;;;;;12.88;94.65;94626.06;4993838;28;20181;-81
2023/05/21 02:55:48;;;;;;;14.37;6.53;;;;;;;12.78;94.61;94613.41;4994954;28;20162;-81
2023/05/21 02:58:14;;;;;;;8.13;5.50;;;;;;;12.82;94.64;94629.59;4994319;28;20624;-81
2023/05/21 03:00:40;;;;;;;8.53;6.00;;;;;;;12.73;94.84;94615.13;4994563;28;20175;-81
2023/05/21 03:03:06;;;;;;;8.63;5.93;;;;;;;12.78;94.65;94626.63;4994124;28;20193;-81
2023/05/21 03:05:31;;;;;;;8.30;5.50;;;;;;;12.76;94.90;94626.03;4992889;28;21088;-81
2023/05/21 03:07:57;;;;;;;10.77;5.83;;;;;;;12.78;95.23;94628.47;4994112;28;20623;-81
2023/05/21 03:10:22;;;;;;;7.97;5.97;;;;;;;12.78;94.87;94637.19;4994426;28;20236;-82
2023/05/21 03:12:48;;;;;;;7.77;5.50;;;;;;;12.81;94.74;94634.06;4994287;28;20640;-82
2023/05/21 03:15:13;;;;;;;8.73;5.90;;;;;;;12.79;94.28;94636.16;4994186;28;20248;-81
2023/05/21 03:17:40;;;;;;;13.53;8.50;;;;;;;12.72;94.24;94624.06;4993830;28;20644;-81
2023/05/21 03:20:07;;;;;;;13.02;8.85;;;;;;;12.77;94.70;94637.41;4992863;28;20423;-81
2023/05/21 03:22:33;;;;;;;13.87;8.03;;;;;;;12.73;94.39;94639.69;4993835;28;20582;-81
2023/05/21 03:24:59;;;;;;;15.63;10.17;;;;;;;12.80;94.26;94643.03;4994537;28;20192;-81
2023/05/21 03:27:24;;;;;;;14.73;8.97;;;;;;;12.79;94.30;94638.81;4994024;28;20165;-81
2023/05/21 03:29:53;;;;;;;10.50;7.80;;;;;;;12.65;94.72;94620.75;4993626;28;20177;-82
2023/05/21 03:32:19;;;;;;;14.43;8.47;;;;;;;12.58;95.09;94599.75;4993682;28;20161;-81
2023/05/21 03:34:44;;;;;;;13.10;8.77;;;;;;;12.77;95.33;94634.78;4993580;28;20187;-81
2023/05/21 03:37:10;;;;;;;13.50;7.43;;;;;;;12.55;95.74;94608.09;4992937;28;20195;-81
2023/05/21 03:39:35;;;;;;;14.37;8.27;;;;;;;12.86;96.09;94649.25;4993816;28;20252;-81
2023/05/21 03:42:01;;;;;;;22.00;13.27;;;;;;;12.79;96.39;94649.38;4992478;28;20482;-81
2023/05/21 03:44:26;;;;;;;16.40;9.73;;;;;;;12.73;96.78;94623.84;4992147;28;20577;-81
2023/05/21 03:46:52;;;;;;;17.90;10.53;;;;;;;12.94;96.51;94654.19;4993687;28;20556;-81
2023/05/21 03:49:19;;;;;;;19.57;10.97;;;;;;;12.85;96.35;94632.59;4993647;28;20185;-81
2023/05/21 03:51:46;;;;;;;18.10;10.77;;;;;;;12.89;96.76;94627.63;4993640;28;20192;-81
2023/05/21 03:54:12;;;;;;;18.47;10.90;;;;;;;13.07;96.72;94642.56;4993242;28;20252;-82
2023/05/21 03:56:37;;;;;;;24.10;13.97;;;;;;;13.09;97.22;94643.13;4992103;28;21295;-78
2023/05/21 03:59:02;;;;;;;22.13;14.13;;;;;;;13.02;97.53;94643.28;4992377;28;20407;-78
2023/05/21 04:01:28;;;;;;;20.93;12.03;;;;;;;12.93;97.23;94625.34;4993460;28;20172;-78
2023/05/21 04:03:53;;;;;;;19.43;12.13;;;;;;;13.03;97.33;94630.84;4992562;28;20211;-79
2023/05/21 04:06:19;;;;;;;18.77;11.47;;;;;;;13.23;96.93;94644.56;4993125;28;20252;-79
2023/05/21 04:08:45;;;;;;;20.90;11.17;;;;;;;13.33;97.33;94641.28;4993662;28;20188;-79
2023/05/21 04:11:10;;;;;;;16.80;10.70;;;;;;;13.41;96.84;94636.44;4992995;28;20570;-79
2023/05/21 04:13:37;;;;;;;17.50;10.60;;;;;;;13.53;96.65;94636.44;4993140;28;20173;-79
2023/05/21 04:16:02;;;;;;;18.17;9.37;;;;;;;13.56;96.47;94639.44;4993421;28;20539;-79
2023/05/21 04:18:28;;;;;;;16.20;9.68;;;;;;;13.54;95.86;94636.19;4993007;28;20420;-79
2023/05/21 04:20:53;;;;;;;15.77;8.73;;;;;;;13.52;96.02;94637.47;4992999;28;20262;-78
2023/05/21 04:23:19;;;;;;;15.13;9.67;;;;;;;13.59;96.15;94643.41;4992505;28;20225;-79
2023/05/21 04:25:44;;;;;;;28.43;16.80;;;;;;;13.65;95.58;94645.16;4992998;28;20685;-79
2023/05/21 04:28:09;;;;;;;29.70;19.20;;;;;;;13.58;96.00;94639.16;4990714;28;20942;-78
2023/05/21 04:30:35;;;;;;;25.23;15.00;;;;;;;13.54;96.56;94615.03;4991890;28;20174;-79
2023/05/21 04:33:01;;;;;;;20.87;12.77;;;;;;;13.80;96.41;94642.00;4993080;28;20161;-79
2023/05/21 04:35:27;;;;;;;21.77;12.13;;;;;;;13.87;96.25;94642.66;4993260;28;20177;-79
2023/05/21 04:37:53;;;;;;;17.17;11.50;;;;;;;13.87;95.91;94632.88;4992728;28;20690;-79
2023/05/21 04:40:23;;;;;;;21.67;12.07;;;;;;;14.04;95.73;94651.44;4992906;28;20161;-79
2023/05/21 04:42:49;;;;;;;17.27;9.53;;;;;;;14.02;95.70;94626.25;4992739;28;20207;-79
2023/05/21 04:45:16;;;;;;;22.07;10.27;;;;;;;14.23;95.65;94646.75;4993192;28;20192;-79
2023/05/21 04:47:41;;;;;;;16.67;10.30;;;;;;;14.27;95.95;94639.94;4992750;28;20251;-79
2023/05/21 04:50:07;;;;;;;16.03;8.87;;;;;;;14.21;95.53;94627.63;4993199;28;20204;-79
2023/05/21 04:52:35;;;;;;;17.20;10.90;;;;;;;14.33;96.25;94649.56;4992483;28;20181;-79
2023/05/21 04:55:00;;;;;;;20.73;10.37;;;;;;;14.35;95.75;94624.47;4993037;28;20260;-79
2023/05/21 04:57:27;;;;;;;17.30;9.70;;;;;;;14.44;95.61;94635.50;4992856;28;20269;-79
2023/05/21 04:59:52;;;;;;;14.27;8.43;;;;;;;14.41;95.61;94620.09;4992304;28;20184;-79
2023/05/21 05:02:18;;;;;;;16.03;9.70;;;;;;;14.49;96.08;94611.72;4999674;28;20177;-79
2023/05/21 05:04:43;;;;;;;13.03;9.20;;;;;;;14.70;96.23;94637.50;5000371;28;20208;-79
2023/05/21 05:07:09;;;;;;;15.33;9.93;;;;;;;14.72;96.55;94630.09;5001117;28;20216;-79
2023/05/21 05:09:34;;;;;;;15.90;9.07;;;;;;;14.91;96.39;94640.47;5000384;28;20162;-79
2023/05/21 05:12:00;;;;;;;20.20;9.97;;;;;;;15.05;95.74;94636.41;4996837;28;20557;-79
2023/05/21 05:14:26;;;;;;;18.67;10.25;;;;;;;15.02;94.77;94621.81;4992748;28;20303;-83
2023/05/21 05:16:53;;;;;;;15.20;9.68;;;;;;;15.26;94.78;94624.25;4994203;28;20169;-83
2023/05/21 05:19:19;;;;;;;14.80;9.43;;;;;;;15.38;94.22;94628.41;5001966;28;20256;-84
2023/05/21 05:21:44;;;;;;;13.32;7.95;;;;;;;15.63;94.41;94645.72;4992620;28;20232;-81
2023/05/21 05:24:09;;;;;;;11.73;7.72;;;;;;;15.73;92.30;94629.91;4990969;28;20268;-79
2023/05/21 05:26:35;;;;;;;18.67;7.18;;;;;;;16.11;91.60;94644.91;4992653;28;20166;-79
2023/05/21 05:29:00;;;;;;;14.07;7.40;;;;;;;16.23;87.85;94625.13;5000114;28;20173;-79
2023/05/21 05:31:26;;;;;;;8.43;6.43;;;;;;;16.34;86.32;94630.56;4991152;28;20641;-79
2023/05/21 05:33:51;;;;;;;10.43;6.47;;;;;;;16.52;86.32;94646.09;4994767;28;20220;-80
2023/05/21 05:36:16;;;;;;;9.75;6.10;;;;;;;16.66;86.93;94643.88;4999634;28;20259;-79
2023/05/21 05:38:42;;;;;;;11.23;5.78;;;;;;;16.75;86.34;94643.16;5011997;28;20184;-79
2023/05/21 05:41:08;;;;;;;8.48;5.90;;;;;;;16.82;86.41;94641.06;5015353;28;20188;-82
2023/05/21 05:43:33;;;;;;;11.90;6.35;;;;;;;16.85;86.96;94624.63;5015268;28;20200;-79
2023/05/21 05:45:59;;;;;;;11.05;6.72;;;;;;;17.10;87.80;94623.19;5015716;28;20664;-82
2023/05/21 05:48:24;;;;;;;12.00;6.10;;;;;;;17.57;85.40;94615.97;5015219;28;20239;-83
2023/05/21 05:50:53;;;;;;;10.27;6.20;;;;;;;17.90;82.94;94643.31;5007203;28;20177;-82
2023/05/21 05:53:19;;;;;;;10.15;6.07;;;;;;;18.00;81.64;94641.47;5002707;28;20167;-82
2023/05/21 05:55:44;;;;;;;7.25;5.25;;;;;;;18.17;81.26;94627.91;5015057;28;20176;-82
2023/05/21 05:58:10;;;;;;;7.82;5.80;;;;;;;18.65;80.10;94639.22;5013756;28;20172;-82
2023/05/21 06:00:35;;;;;;;11.60;6.00;;;;;;;19.16;77.97;94648.78;5011799;28;20243;-81
2023/05/21 06:03:01;;;;;;;8.07;5.35;;;;;;;19.52;74.30;94606.03;5007875;28;20675;-81
2023/05/21 06:05:26;;;;;;;10.38;6.43;;;;;;;20.33;71.78;94622.47;5000458;28;21024;-81
2023/05/21 06:07:51;;;;;;;13.05;6.35;;;;;;;21.38;68.42;94661.28;5006851;28;20200;-81
2023/05/21 06:10:19;;;;;;;9.25;6.65;;;;;;;22.19;66.17;94653.16;5006513;28;20176;-81
2023/05/21 06:12:44;;;;;;;11.48;6.22;;;;;;;22.64;63.30;94656.31;5000828;28;20205;-84
2023/05/21 06:15:10;;;;;;;13.65;7.03;;;;;;;22.70;62.10;94611.38;5013427;28;20315;-82
2023/05/21 06:17:35;;;;;;;10.65;5.05;;;;;;;23.13;57.69;94622.78;5015232;28;20196;-81
2023/05/21 06:20:01;;;;;;;9.60;4.85;;;;;;;23.47;57.48;94638.59;5014616;28;20630;-83
2023/05/21 06:22:26;;;;;;;9.60;5.75;;;;;;;23.65;58.05;94624.28;5001429;28;20181;-82
2023/05/21 06:24:52;;;;;;;8.52;5.20;;;;;;;23.46;55.23;94627.03;4999648;28;20306;-84
2023/05/21 06:27:17;;;;;;;12.00;5.75;;;;;;;23.17;56.32;94613.06;5013160;28;20239;-82
2023/05/21 06:29:42;;;;;;;12.52;4.78;;;;;;;22.78;55.20;94606.19;5014491;28;20207;-82
2023/05/21 06:32:08;;;;;;;8.45;4.63;;;;;;;22.08;55.10;94598.06;4998386;28;20707;-84
2023/05/21 06:34:33;;;;;;;11.05;4.30;;;;;;;21.79;55.83;94600.81;4994602;28;20168;-84
2023/05/21 06:36:58;;;;;;;8.57;4.60;;;;;;;21.38;57.96;94624.59;4994843;28;20180;-84
2023/05/21 06:39:25;;;;;;;7.40;4.07;;;;;;;20.95;57.95;94620.16;5000320;28;20191;-84
2023/05/21 06:41:51;;;;;;;11.70;4.57;;;;;;;20.23;58.41;94587.00;5013971;28;20204;-86
2023/05/21 06:44:17;;;;;;;8.05;3.78;;;;;;;20.02;58.60;94599.66;5003058;28;20193;-85
2023/05/21 06:46:42;;;;;;;7.55;3.97;;;;;;;19.83;59.34;94569.28;4993997;28;20193;-85
2023/05/21 06:49:10;;;;;;;8.68;4.00;;;;;;;20.03;59.31;94614.63;5000918;28;20621;-85
2023/05/21 06:51:36;;;;;;;5.97;3.83;;;;;;;19.39;59.61;94502.44;5007826;28;20851;-85
2023/05/21 06:54:02;;;;;;;12.23;4.05;;;;;;;19.66;59.07;94571.50;5012518;28;20165;-86
2023/05/21 06:56:28;;;;;;;8.30;4.00;;;;;;;19.58;61.24;94540.84;5013764;28;20177;-85
2023/05/21 06:58:53;;;;;;;6.32;3.75;;;;;;;20.05;60.40;94604.47;5000723;28;20169;-85
2023/05/21 07:01:21;;;;;;;14.80;4.28;;;;;;;20.23;59.43;94587.78;5007127;28;20210;-85
2023/05/21 07:03:46;;;;;;;8.55;4.28;;;;;;;20.49;57.02;94612.50;5002510;28;20706;-85
2023/05/21 07:06:14;;;;;;;9.48;4.05;;;;;;;20.29;57.29;94583.19;4997236;28;20263;-85
2023/05/21 07:08:39;;;;;;;7.53;3.90;;;;;;;20.04;56.80;94573.47;5013639;28;20145;-85
2023/05/21 07:11:05;;;;;;;6.07;3.63;;;;;;;20.09;57.58;94600.16;5005272;28;20223;-85
2023/05/21 07:13:30;;;;;;;10.27;3.95;;;;;;;19.78;59.63;94564.78;4998545;28;20551;-85
2023/05/21 07:15:56;;;;;;;6.05;3.97;;;;;;;20.07;58.92;94567.53;4999928;28;20203;-85
2023/05/21 07:18:21;;;;;;;8.43;4.65;;;;;;;20.44;57.80;94551.03;5008823;28;20663;-86
2023/05/21 07:20:46;;;;;;;7.60;4.15;;;;;;;20.95;55.69;94612.13;5004353;28;20176;-85
2023/05/21 07:23:12;;;;;;;5.63;3.78;;;;;;;21.23;55.60;94608.69;4995124;28;20267;-85
2023/05/21 07:25:37;;;;;;;7.10;3.38;;;;;;;21.19;54.52;94578.19;4994966;28;20555;-83
2023/05/21 07:28:03;;;;;;;5.78;3.78;;;;;;;20.69;56.54;94564.19;5003205;28;20609;-83
2023/05/21 07:30:28;;;;;;;9.50;4.25;;;;;;;21.16;57.12;94610.88;4992543;28;20165;-83
2023/05/21 07:32:53;;;;;;;8.35;4.82;;;;;;;21.39;55.42;94566.47;4993009;28;20197;-84
2023/05/21 07:35:19;;;;;;;8.57;3.70;;;;;;;21.80;54.78;94615.00;4987277;28;20207;-82
2023/05/21 07:37:45;;;;;;;7.95;4.05;;;;;;;21.82;53.21;94619.00;4997524;28;20185;-83
2023/05/21 07:40:11;;;;;;;5.93;3.60;;;;;;;21.88;52.69;94600.97;4999199;28;20172;-82
2023/05/21 07:42:37;;;;;;;6.80;3.75;;;;;;;21.94;53.68;94613.25;5009371;28;20651;-84
2023/05/21 07:45:02;;;;;;;6.93;4.28;;;;;;;21.74;53.98;94578.66;4997064;28;20177;-84
2023/05/21 07:47:27;;;;;;;9.60;4.07;;;;;;;22.02;53.87;94583.13;4990988;28;20644;-83
2023/05/21 07:49:53;;;;;;;5.90;4.05;;;;;;;22.22;52.96;94567.88;4995974;28;20181;-83
2023/05/21 07:52:18;;;;;;;8.80;4.30;;;;;;;22.63;52.24;94602.91;4997491;28;20174;-84
2023/05/21 07:54:44;;;;;;;5.10;3.65;;;;;;;22.84;52.21;94601.53;5001525;28;20700;-84
2023/05/21 07:57:09;;;;;;;7.50;4.22;;;;;;;22.96;51.77;94558.91;5000648;28;20169;-82
2023/05/21 07:59:35;;;;;;;5.75;4.22;;;;;;;23.10;51.29;94604.56;5005759;28;20180;-82
2023/05/21 08:02:00;;;;;;;9.02;4.15;;;;;;;23.01;52.08;94574.13;5001852;28;20663;-82
2023/05/21 08:04:25;;;;;;;8.35;4.40;;;;;;;23.03;51.40;94578.09;5001844;28;20200;-83
2023/05/21 08:06:51;;;;;;;8.48;3.63;;;;;;;23.07;52.96;94597.13;5001608;28;20180;-81
2023/05/21 08:09:18;;;;;;;11.60;4.35;;;;;;;22.90;52.01;94608.44;4997583;28;20176;-79
2023/05/21 08:11:45;;;;;;;10.00;4.35;;;;;;;22.57;52.31;94607.56;4996525;28;20169;-80
2023/05/21 08:14:10;;;;;;;5.75;3.03;;;;;;;22.18;49.67;94597.94;5001159;28;20187;-82
2023/05/21 08:16:36;;;;;;;5.88;3.65;;;;;;;21.61;46.29;94604.28;5004368;28;20260;-82
2023/05/21 08:19:01;;;;;;;10.85;3.40;;;;;;;21.45;47.00;94611.66;4999743;28;20274;-81
2023/05/21 08:21:27;;;;;;;7.18;3.03;;;;;;;21.34;46.04;94615.53;5001551;28;20183;-81
2023/05/21 08:23:52;;;;;;;7.25;3.60;;;;;;;21.14;46.06;94586.25;4992458;28;20228;-84
2023/05/21 08:26:18;;;;;;;5.05;2.83;;;;;;;21.20;46.25;94603.88;4993202;28;20176;-80
2023/05/21 08:28:43;;;;;;;12.52;3.05;;;;;;;20.97;46.37;94561.81;4993117;28;20237;-86
2023/05/21 08:31:09;;;;;;;5.38;2.70;;;;;;;20.84;46.36;94599.94;4979600;28;20166;-85
2023/05/21 08:33:37;;;;;;;4.47;3.08;;;;;;;20.69;46.66;94604.31;4983205;28;20172;-83
2023/05/21 08:36:04;;;;;;;7.28;3.03;;;;;;;20.89;46.64;94597.19;5001308;28;20211;-83
2023/05/21 08:38:30;;;;;;;8.60;3.10;;;;;;;20.95;45.48;94602.22;4996365;28;20939;-83
2023/05/21 08:40:56;;;;;;;4.80;2.97;;;;;;;20.81;45.51;94579.06;5010224;28;20251;-83
2023/05/21 08:43:22;;;;;;;7.07;3.22;;;;;;;20.87;45.86;94584.09;5012107;28;20674;-83
2023/05/21 08:45:53;;;;;;;6.25;2.85;;;;;;;20.96;45.95;94613.72;5007341;28;20260;-84
2023/05/21 08:48:21;;;;;;;6.28;2.60;;;;;;;20.99;45.20;94589.88;5001262;28;20161;-83
2023/05/21 08:50:49;;;;;;;3.53;2.72;;;;;;;20.85;45.39;94574.75;4999803;28;20188;-84
2023/05/21 08:53:15;;;;;;;6.10;3.60;;;;;;;21.25;45.81;94595.81;5005495;28;20251;-83
2023/05/21 08:55:41;;;;;;;5.38;3.08;;;;;;;21.40;45.28;94576.91;5004712;28;20269;-83
2023/05/21 08:58:07;;;;;;;6.28;2.97;;;;;;;21.70;43.12;94602.56;5005436;28;20196;-84
2023/05/21 09:00:33;;;;;;;9.70;3.22;;;;;;;21.51;42.63;94604.38;5002833;28;20219;-82
2023/05/21 09:03:00;;;;;;;5.53;2.70;;;;;;;21.58;43.82;94585.28;5001844;28;20742;-82
2023/05/21 09:05:27;;;;;;;9.50;2.97;;;;;;;21.88;45.10;94598.28;5001068;28;20161;-81
2023/05/21 09:08:00;;;;;;;9.05;2.85;;;;;;;21.89;44.17;94594.53;4996758;28;20172;-82
2023/05/21 09:10:35;;;;;;;6.28;2.90;;;;;;;21.91;44.93;94613.81;5006529;28;20181;-83
2023/05/21 09:13:02;;;;;;;6.68;3.08;;;;;;;21.66;43.93;94609.56;4993899;28;20180;-83
2023/05/21 09:15:28;;;;;;;8.70;2.97;;;;;;;21.62;45.83;94613.09;5004467;28;20711;-82
2023/05/21 09:17:53;;;;;;;5.80;3.72;;;;;;;21.84;45.85;94602.66;5006330;28;20165;-82
2023/05/21 09:20:23;;;;;;;4.40;3.00;;;;;;;21.99;45.85;94583.72;5005458;28;20636;-82
2023/05/21 09:22:50;;;;;;;8.00;2.88;;;;;;;22.00;46.04;94596.03;4996064;28;20205;-85
2023/05/21 09:25:28;;;;;;;5.45;2.90;;;;;;;22.20;45.78;94601.13;5005193;28;20224;-83
2023/05/21 09:27:55;;;;;;;6.15;3.10;;;;;;;22.11;44.79;94569.88;5005703;28;20215;-83
2023/05/21 09:30:20;;;;;;;7.43;3.35;;;;;;;22.60;43.85;94606.97;4998480;28;20184;-82
2023/05/21 09:32:52;;;;;;;6.40;2.75;;;;;;;22.36;43.67;94608.94;4995869;28;20157;-84
2023/05/21 09:35:17;;;;;;;6.90;2.83;;;;;;;22.49;44.04;94600.16;4994952;28;20556;-82
2023/05/21 09:37:46;;;;;;;4.90;3.05;;;;;;;22.19;43.39;94598.72;5009140;28;20168;-82
2023/05/21 09:40:22;;;;;;;9.55;3.20;;;;;;;21.81;43.69;94613.94;5006920;28;20667;-83
2023/05/21 09:42:50;;;;;;;15.10;3.90;;;;;;;21.69;43.76;94600.16;4995307;28;20937;-82
2023/05/21 09:45:26;;;;;;;7.22;3.38;;;;;;;21.69;43.53;94590.25;5007754;28;20174;-83
2023/05/21 09:47:53;;;;;;;4.80;2.88;;;;;;;21.66;43.61;94588.13;4986632;28;20169;-82
2023/05/21 09:50:28;;;;;;;4.30;2.65;;;;;;;21.59;42.66;94592.22;5009234;28;20622;-82
2023/05/21 09:52:54;;;;;;;5.60;2.90;;;;;;;21.82;45.16;94588.72;5005154;28;20264;-83
2023/05/21 09:55:25;;;;;;;4.95;2.67;;;;;;;21.66;41.46;94590.00;5003213;28;20196;-81
2023/05/21 09:57:51;;;;;;;7.00;3.05;;;;;;;21.53;42.24;94586.16;4987284;28;20180;-81
2023/05/21 10:00:18;;;;;;;6.45;2.88;;;;;;;21.75;43.07;94594.44;4999327;28;20617;-81
2023/05/21 10:02:48;;;;;;;4.40;2.70;;;;;;;21.60;43.98;94529.53;4994575;28;20184;-81
2023/05/21 10:05:17;;;;;;;6.65;2.58;;;;;;;21.99;42.79;94577.53;5005096;28;20274;-80
2023/05/21 10:07:50;;;;;;;3.35;2.55;;;;;;;22.22;43.02;94575.91;5006015;28;20175;-79
2023/05/21 10:10:18;;;;;;;4.68;3.00;;;;;;;22.47;45.21;94581.69;5001488;28;20189;-80
2023/05/21 10:12:46;;;;;;;8.70;2.83;;;;;;;22.28;41.87;94577.41;4997428;28;20180;-80
2023/05/21 10:15:22;;;;;;;7.45;3.22;;;;;;;22.20;43.54;94566.25;5012658;28;20180;-82
2023/05/21 10:17:48;;;;;;;4.85;2.47;;;;;;;22.24;42.40;94571.81;5014393;28;20192;-83
2023/05/21 10:20:16;;;;;;;5.43;2.90;;;;;;;22.59;46.24;94567.81;5012181;28;20211;-80
2023/05/21 10:22:43;;;;;;;5.55;3.13;;;;;;;22.77;41.50;94571.56;5004257;28;20888;-81
2023/05/21 10:25:09;;;;;;;4.75;2.88;;;;;;;22.90;42.29;94574.31;4994344;28;20221;-81
2023/05/21 10:27:38;;;;;;;6.60;2.60;;;;;;;22.36;40.69;94572.19;4978807;28;20588;-81
2023/05/21 10:30:07;;;;;;;4.70;3.33;;;;;;;22.35;42.04;94575.16;4976177;28;20973;-81
2023/05/21 10:32:33;;;;;;;4.07;2.78;;;;;;;22.28;42.28;94554.09;4998300;28;20204;-80
2023/05/21 10:34:59;;;;;;;9.05;2.70;;;;;;;22.17;42.38;94558.78;4991248;28;20644;-81
2023/05/21 10:37:26;;;;;;;5.18;2.60;;;;;;;22.26;42.25;94568.88;5002717;28;20182;-81
2023/05/21 10:39:52;;;;;;;7.15;2.80;;;;;;;21.90;42.92;94560.47;4999056;28;20184;-82
2023/05/21 10:42:29;;;;;;;4.45;2.50;;;;;;;21.77;42.57;94560.13;4983023;28;20257;-82
2023/05/21 10:45:31;;;;;;;7.75;2.35;;;;;;;21.93;43.39;94568.75;4990444;28;20196;-83
2023/05/21 10:48:14;;;;;;;4.88;3.22;;;;;;;21.83;43.27;94567.00;4996710;28;20186;-82
2023/05/21 10:50:52;;;;;;;7.47;3.53;;;;;;;21.76;43.59;94568.44;4995945;28;20165;-84
2023/05/21 10:53:47;;;;;;;4.20;2.78;;;;;;;21.72;44.29;94564.72;4998249;28;20191;-83
2023/05/21 10:56:24;;;;;;;4.65;3.05;;;;;;;21.50;44.46;94565.28;4978182;28;20204;-83
2023/05/21 10:59:06;;;;;;;4.50;2.80;;;;;;;21.47;44.39;94560.47;4992765;28;20179;-82
2023/05/21 11:01:36;;;;;;;8.18;4.22;;;;;;;21.37;45.40;94572.09;4994120;28;20157;-83
2023/05/21 11:04:03;;;;;;;6.18;3.08;;;;;;;21.27;45.00;94553.50;4993972;28;20246;-82
2023/05/21 11:06:28;;;;;;;6.95;2.70;;;;;;;21.10;46.12;94539.72;4978233;28;20930;-83
2023/05/21 11:08:54;;;;;;;3.50;2.65;;;;;;;21.29;46.30;94569.25;4984048;28;20169;-83
2023/05/21 11:11:48;;;;;;;4.93;2.70;;;;;;;21.22;46.17;94569.59;4974614;28;20155;-83
2023/05/21 11:14:31;;;;;;;3.72;2.67;;;;;;;21.16;46.28;94560.00;4993784;28;20193;-82
2023/05/21 11:16:58;;;;;;;5.40;2.92;;;;;;;21.09;46.88;94552.31;4989917;28;20998;-83
2023/05/21 11:19:36;;;;;;;7.82;2.75;;;;;;;21.10;46.25;94553.13;4974259;28;20926;-82
2023/05/21 11:22:06;;;;;;;7.10;3.05;;;;;;;21.08;46.98;94557.94;4975370;28;20556;-82
2023/05/21 11:24:32;;;;;;;5.18;2.70;;;;;;;21.14;46.12;94551.44;4973775;28;20699;-82
2023/05/21 11:27:01;;;;;;;11.18;3.67;;;;;;;21.24;45.88;94553.25;4987947;28;20177;-81